sensor_id;sensor_type;location;lat;lon;timestamp;P1;durP1;ratioP1;P2;durP2;ratioP2
17987;SDS011;9119;50.932;5.342;2023-07-29T00:02:08;521.93;;;318.43;;
17987;SDS011;9119;50.932;5.342;2023-07-29T00:04:33;232.37;;;138.13;;
17987;SDS011;9119;50.932;5.342;2023-07-29T00:06:59;633.37;;;368.00;;
17987;SDS011;9119;50.932;5.342;2023-07-29T00:09:25;86.87;;;37.03;;
17987;SDS011;9119;50.932;5.342;2023-07-29T00:11:50;1240.40;;;708.80;;
17987;SDS011;9119;50.932;5.342;2023-07-29T00:14:16;803.57;;;476.30;;
17987;SDS011;9119;50.932;5.342;2023-07-29T00:16:42;971.20;;;592.17;;
17987;SDS011;9119;50.932;5.342;2023-07-29T00:19:08;563.33;;;306.13;;
17987;SDS011;9119;50.932;5.342;2023-07-29T00:21:33;218.70;;;99.40;;
17987;SDS011;9119;50.932;5.342;2023-07-29T00:23:59;512.93;;;260.13;;
17987;SDS011;9119;50.932;5.342;2023-07-29T00:26:26;220.47;;;116.40;;
17987;SDS011;9119;50.932;5.342;2023-07-29T00:28:54;74.23;;;38.37;;
17987;SDS011;9119;50.932;5.342;2023-07-29T00:31:20;206.50;;;115.73;;
17987;SDS011;9119;50.932;5.342;2023-07-29T00:33:46;255.37;;;160.20;;
17987;SDS011;9119;50.932;5.342;2023-07-29T00:36:11;121.67;;;77.73;;
17987;SDS011;9119;50.932;5.342;2023-07-29T00:38:37;98.40;;;58.33;;
17987;SDS011;9119;50.932;5.342;2023-07-29T00:41:02;456.33;;;304.40;;
17987;SDS011;9119;50.932;5.342;2023-07-29T00:43:28;105.77;;;58.37;;
17987;SDS011;9119;50.932;5.342;2023-07-29T00:45:54;435.33;;;291.67;;
17987;SDS011;9119;50.932;5.342;2023-07-29T00:48:22;525.57;;;372.07;;
17987;SDS011;9119;50.932;5.342;2023-07-29T00:50:48;107.93;;;61.10;;
17987;SDS011;9119;50.932;5.342;2023-07-29T00:53:14;559.07;;;371.70;;
17987;SDS011;9119;50.932;5.342;2023-07-29T00:55:40;742.03;;;461.80;;
17987;SDS011;9119;50.932;5.342;2023-07-29T00:58:07;124.27;;;65.20;;
17987;SDS011;9119;50.932;5.342;2023-07-29T01:00:32;617.30;;;363.77;;
17987;SDS011;9119;50.932;5.342;2023-07-29T01:02:58;446.07;;;254.67;;
17987;SDS011;9119;50.932;5.342;2023-07-29T01:05:24;262.27;;;142.90;;
17987;SDS011;9119;50.932;5.342;2023-07-29T01:08:23;13.33;;;8.10;;
17987;SDS011;9119;50.932;5.342;2023-07-29T01:11:38;711.17;;;428.67;;
17987;SDS011;9119;50.932;5.342;2023-07-29T01:13:55;65.57;;;37.40;;
17987;SDS011;9119;50.932;5.342;2023-07-29T01:17:15;148.87;;;77.73;;
17987;SDS011;9119;50.932;5.342;2023-07-29T01:19:42;106.67;;;48.90;;
17987;SDS011;9119;50.932;5.342;2023-07-29T01:22:04;185.43;;;90.13;;
17987;SDS011;9119;50.932;5.342;2023-07-29T01:24:32;26.47;;;15.23;;
17987;SDS011;9119;50.932;5.342;2023-07-29T01:26:58;507.17;;;290.93;;
17987;SDS011;9119;50.932;5.342;2023-07-29T01:29:23;263.20;;;133.23;;
17987;SDS011;9119;50.932;5.342;2023-07-29T01:31:49;340.27;;;159.40;;
17987;SDS011;9119;50.932;5.342;2023-07-29T01:34:23;35.40;;;16.10;;
17987;SDS011;9119;50.932;5.342;2023-07-29T01:37:03;12.40;;;6.80;;
17987;SDS011;9119;50.932;5.342;2023-07-29T01:39:34;185.57;;;105.03;;
17987;SDS011;9119;50.932;5.342;2023-07-29T01:42:01;90.50;;;33.40;;
17987;SDS011;9119;50.932;5.342;2023-07-29T01:44:28;206.17;;;78.53;;
17987;SDS011;9119;50.932;5.342;2023-07-29T01:46:55;43.03;;;19.67;;
17987;SDS011;9119;50.932;5.342;2023-07-29T01:49:21;9.53;;;5.90;;
17987;SDS011;9119;50.932;5.342;2023-07-29T01:51:47;137.87;;;75.57;;
17987;SDS011;9119;50.932;5.342;2023-07-29T01:54:12;87.57;;;39.03;;
17987;SDS011;9119;50.932;5.342;2023-07-29T01:56:38;191.83;;;104.17;;
17987;SDS011;9119;50.932;5.342;2023-07-29T01:59:04;51.27;;;20.47;;
17987;SDS011;9119;50.932;5.342;2023-07-29T02:01:29;106.13;;;53.53;;
17987;SDS011;9119;50.932;5.342;2023-07-29T02:03:56;102.70;;;43.33;;
17987;SDS011;9119;50.932;5.342;2023-07-29T02:06:21;45.70;;;20.90;;
17987;SDS011;9119;50.932;5.342;2023-07-29T02:08:47;40.20;;;20.17;;
17987;SDS011;9119;50.932;5.342;2023-07-29T02:11:13;19.00;;;11.23;;
17987;SDS011;9119;50.932;5.342;2023-07-29T02:13:39;15.30;;;8.57;;
17987;SDS011;9119;50.932;5.342;2023-07-29T02:16:04;19.97;;;9.03;;
17987;SDS011;9119;50.932;5.342;2023-07-29T02:18:30;12.10;;;5.23;;
17987;SDS011;9119;50.932;5.342;2023-07-29T02:20:56;5.27;;;2.83;;
17987;SDS011;9119;50.932;5.342;2023-07-29T02:23:21;26.87;;;13.93;;
17987;SDS011;9119;50.932;5.342;2023-07-29T02:25:47;54.20;;;24.93;;
17987;SDS011;9119;50.932;5.342;2023-07-29T02:28:13;18.60;;;7.83;;
17987;SDS011;9119;50.932;5.342;2023-07-29T02:30:40;25.17;;;10.33;;
17987;SDS011;9119;50.932;5.342;2023-07-29T02:33:06;20.70;;;8.43;;
17987;SDS011;9119;50.932;5.342;2023-07-29T02:35:32;24.90;;;11.63;;
17987;SDS011;9119;50.932;5.342;2023-07-29T02:37:58;17.90;;;8.87;;
17987;SDS011;9119;50.932;5.342;2023-07-29T02:40:23;13.67;;;6.87;;
17987;SDS011;9119;50.932;5.342;2023-07-29T02:42:51;25.87;;;11.17;;
17987;SDS011;9119;50.932;5.342;2023-07-29T02:45:17;30.07;;;14.03;;
17987;SDS011;9119;50.932;5.342;2023-07-29T02:47:43;6.53;;;3.13;;
17987;SDS011;9119;50.932;5.342;2023-07-29T02:50:08;8.73;;;2.87;;
17987;SDS011;9119;50.932;5.342;2023-07-29T02:52:34;8.23;;;5.63;;
17987;SDS011;9119;50.932;5.342;2023-07-29T02:55:00;3.23;;;2.13;;
17987;SDS011;9119;50.932;5.342;2023-07-29T02:57:25;4.33;;;2.80;;
17987;SDS011;9119;50.932;5.342;2023-07-29T02:59:51;6.40;;;1.93;;
17987;SDS011;9119;50.932;5.342;2023-07-29T03:02:16;2.77;;;1.83;;
17987;SDS011;9119;50.932;5.342;2023-07-29T03:04:42;4.10;;;2.17;;
17987;SDS011;9119;50.932;5.342;2023-07-29T03:07:08;10.90;;;2.93;;
17987;SDS011;9119;50.932;5.342;2023-07-29T03:09:33;5.93;;;2.23;;
17987;SDS011;9119;50.932;5.342;2023-07-29T03:11:59;4.07;;;2.13;;
17987;SDS011;9119;50.932;5.342;2023-07-29T03:14:25;4.30;;;2.07;;
17987;SDS011;9119;50.932;5.342;2023-07-29T03:16:51;2.90;;;2.13;;
17987;SDS011;9119;50.932;5.342;2023-07-29T03:19:17;9.77;;;2.30;;
17987;SDS011;9119;50.932;5.342;2023-07-29T03:21:42;5.53;;;1.97;;
17987;SDS011;9119;50.932;5.342;2023-07-29T03:24:08;2.63;;;2.10;;
17987;SDS011;9119;50.932;5.342;2023-07-29T03:26:34;3.67;;;2.07;;
17987;SDS011;9119;50.932;5.342;2023-07-29T03:28:59;3.23;;;2.10;;
17987;SDS011;9119;50.932;5.342;2023-07-29T03:31:25;6.13;;;1.90;;
17987;SDS011;9119;50.932;5.342;2023-07-29T03:33:51;5.23;;;2.00;;
17987;SDS011;9119;50.932;5.342;2023-07-29T03:36:16;4.87;;;3.00;;
17987;SDS011;9119;50.932;5.342;2023-07-29T03:38:42;6.17;;;2.90;;
17987;SDS011;9119;50.932;5.342;2023-07-29T03:41:09;6.07;;;2.20;;
17987;SDS011;9119;50.932;5.342;2023-07-29T03:43:35;6.43;;;3.53;;
17987;SDS011;9119;50.932;5.342;2023-07-29T03:46:01;6.33;;;2.00;;
17987;SDS011;9119;50.932;5.342;2023-07-29T03:48:27;4.37;;;1.90;;
17987;SDS011;9119;50.932;5.342;2023-07-29T03:50:53;8.83;;;1.73;;
17987;SDS011;9119;50.932;5.342;2023-07-29T03:53:19;4.23;;;1.80;;
17987;SDS011;9119;50.932;5.342;2023-07-29T03:55:45;6.10;;;1.90;;
17987;SDS011;9119;50.932;5.342;2023-07-29T03:58:11;4.97;;;2.10;;
17987;SDS011;9119;50.932;5.342;2023-07-29T04:00:37;3.50;;;2.37;;
17987;SDS011;9119;50.932;5.342;2023-07-29T04:03:03;3.13;;;1.70;;
17987;SDS011;9119;50.932;5.342;2023-07-29T04:05:29;2.77;;;2.20;;
17987;SDS011;9119;50.932;5.342;2023-07-29T04:07:54;6.13;;;2.17;;
17987;SDS011;9119;50.932;5.342;2023-07-29T04:10:20;6.40;;;2.47;;
17987;SDS011;9119;50.932;5.342;2023-07-29T04:12:46;5.20;;;2.37;;
17987;SDS011;9119;50.932;5.342;2023-07-29T04:15:12;3.73;;;2.00;;
17987;SDS011;9119;50.932;5.342;2023-07-29T04:17:37;4.23;;;2.33;;
17987;SDS011;9119;50.932;5.342;2023-07-29T04:20:03;6.87;;;3.20;;
17987;SDS011;9119;50.932;5.342;2023-07-29T04:22:29;5.63;;;2.83;;
17987;SDS011;9119;50.932;5.342;2023-07-29T04:24:55;4.73;;;2.57;;
17987;SDS011;9119;50.932;5.342;2023-07-29T04:27:20;5.33;;;2.60;;
17987;SDS011;9119;50.932;5.342;2023-07-29T04:29:46;6.23;;;2.87;;
17987;SDS011;9119;50.932;5.342;2023-07-29T04:32:11;4.20;;;2.63;;
17987;SDS011;9119;50.932;5.342;2023-07-29T04:34:37;3.43;;;2.53;;
17987;SDS011;9119;50.932;5.342;2023-07-29T04:37:03;6.67;;;2.93;;
17987;SDS011;9119;50.932;5.342;2023-07-29T04:39:28;5.33;;;2.50;;
17987;SDS011;9119;50.932;5.342;2023-07-29T04:41:57;8.93;;;2.80;;
17987;SDS011;9119;50.932;5.342;2023-07-29T04:44:22;9.37;;;2.97;;
17987;SDS011;9119;50.932;5.342;2023-07-29T04:46:48;7.10;;;2.33;;
17987;SDS011;9119;50.932;5.342;2023-07-29T04:49:14;7.60;;;2.60;;
17987;SDS011;9119;50.932;5.342;2023-07-29T04:51:39;5.90;;;2.70;;
17987;SDS011;9119;50.932;5.342;2023-07-29T04:54:05;8.47;;;2.80;;
17987;SDS011;9119;50.932;5.342;2023-07-29T04:56:30;7.03;;;2.50;;
17987;SDS011;9119;50.932;5.342;2023-07-29T04:58:56;12.07;;;2.67;;
17987;SDS011;9119;50.932;5.342;2023-07-29T05:01:21;7.17;;;2.87;;
17987;SDS011;9119;50.932;5.342;2023-07-29T05:03:47;3.33;;;2.50;;
17987;SDS011;9119;50.932;5.342;2023-07-29T05:06:13;11.47;;;3.07;;
17987;SDS011;9119;50.932;5.342;2023-07-29T05:08:38;5.10;;;2.47;;
17987;SDS011;9119;50.932;5.342;2023-07-29T05:11:04;13.97;;;2.70;;
17987;SDS011;9119;50.932;5.342;2023-07-29T05:13:30;4.17;;;2.60;;
17987;SDS011;9119;50.932;5.342;2023-07-29T05:15:55;6.70;;;2.77;;
17987;SDS011;9119;50.932;5.342;2023-07-29T05:18:21;7.20;;;3.40;;
17987;SDS011;9119;50.932;5.342;2023-07-29T05:20:47;6.43;;;2.60;;
17987;SDS011;9119;50.932;5.342;2023-07-29T05:23:13;6.03;;;2.30;;
17987;SDS011;9119;50.932;5.342;2023-07-29T05:25:38;8.97;;;2.80;;
17987;SDS011;9119;50.932;5.342;2023-07-29T05:28:04;5.33;;;2.50;;
17987;SDS011;9119;50.932;5.342;2023-07-29T05:30:30;5.37;;;2.37;;
17987;SDS011;9119;50.932;5.342;2023-07-29T05:32:59;6.87;;;2.43;;
17987;SDS011;9119;50.932;5.342;2023-07-29T05:35:25;6.77;;;2.53;;
17987;SDS011;9119;50.932;5.342;2023-07-29T05:37:51;4.27;;;2.50;;
17987;SDS011;9119;50.932;5.342;2023-07-29T05:40:17;7.70;;;2.50;;
17987;SDS011;9119;50.932;5.342;2023-07-29T05:42:43;4.70;;;2.50;;
17987;SDS011;9119;50.932;5.342;2023-07-29T05:45:10;9.17;;;2.50;;
17987;SDS011;9119;50.932;5.342;2023-07-29T05:47:36;5.43;;;2.33;;
17987;SDS011;9119;50.932;5.342;2023-07-29T05:50:02;5.07;;;2.10;;
17987;SDS011;9119;50.932;5.342;2023-07-29T05:52:29;3.80;;;1.97;;
17987;SDS011;9119;50.932;5.342;2023-07-29T05:54:55;4.80;;;2.57;;
17987;SDS011;9119;50.932;5.342;2023-07-29T05:57:21;4.40;;;1.97;;
17987;SDS011;9119;50.932;5.342;2023-07-29T05:59:47;5.13;;;2.07;;
17987;SDS011;9119;50.932;5.342;2023-07-29T06:02:13;3.57;;;2.10;;
17987;SDS011;9119;50.932;5.342;2023-07-29T06:04:38;5.33;;;1.83;;
17987;SDS011;9119;50.932;5.342;2023-07-29T06:07:04;4.80;;;1.90;;
17987;SDS011;9119;50.932;5.342;2023-07-29T06:09:31;3.37;;;2.10;;
17987;SDS011;9119;50.932;5.342;2023-07-29T06:11:56;4.13;;;2.17;;
17987;SDS011;9119;50.932;5.342;2023-07-29T06:14:22;3.03;;;1.70;;
17987;SDS011;9119;50.932;5.342;2023-07-29T06:16:48;3.47;;;2.10;;
17987;SDS011;9119;50.932;5.342;2023-07-29T06:19:13;6.67;;;2.13;;
17987;SDS011;9119;50.932;5.342;2023-07-29T06:21:39;4.47;;;2.17;;
17987;SDS011;9119;50.932;5.342;2023-07-29T06:24:05;4.13;;;1.73;;
17987;SDS011;9119;50.932;5.342;2023-07-29T06:26:30;4.60;;;2.20;;
17987;SDS011;9119;50.932;5.342;2023-07-29T06:28:56;10.53;;;3.67;;
17987;SDS011;9119;50.932;5.342;2023-07-29T06:31:22;7.20;;;2.63;;
17987;SDS011;9119;50.932;5.342;2023-07-29T06:33:47;6.20;;;2.30;;
17987;SDS011;9119;50.932;5.342;2023-07-29T06:36:13;2.57;;;1.60;;
17987;SDS011;9119;50.932;5.342;2023-07-29T06:38:39;8.47;;;2.13;;
17987;SDS011;9119;50.932;5.342;2023-07-29T06:41:04;10.27;;;2.33;;
17987;SDS011;9119;50.932;5.342;2023-07-29T06:43:30;4.43;;;1.67;;
17987;SDS011;9119;50.932;5.342;2023-07-29T06:45:56;6.43;;;1.90;;
17987;SDS011;9119;50.932;5.342;2023-07-29T06:48:22;3.40;;;1.70;;
17987;SDS011;9119;50.932;5.342;2023-07-29T06:50:48;4.17;;;1.70;;
17987;SDS011;9119;50.932;5.342;2023-07-29T06:53:15;4.70;;;2.10;;
17987;SDS011;9119;50.932;5.342;2023-07-29T06:55:41;4.40;;;2.10;;
17987;SDS011;9119;50.932;5.342;2023-07-29T06:58:06;8.83;;;2.00;;
17987;SDS011;9119;50.932;5.342;2023-07-29T07:00:32;3.17;;;1.60;;
17987;SDS011;9119;50.932;5.342;2023-07-29T07:02:58;5.60;;;1.83;;
17987;SDS011;9119;50.932;5.342;2023-07-29T07:05:23;5.50;;;1.63;;
17987;SDS011;9119;50.932;5.342;2023-07-29T07:07:49;5.43;;;1.60;;
17987;SDS011;9119;50.932;5.342;2023-07-29T07:10:15;4.47;;;1.50;;
17987;SDS011;9119;50.932;5.342;2023-07-29T07:12:40;2.60;;;1.40;;
17987;SDS011;9119;50.932;5.342;2023-07-29T07:15:06;4.87;;;1.60;;
17987;SDS011;9119;50.932;5.342;2023-07-29T07:17:32;3.50;;;1.40;;
17987;SDS011;9119;50.932;5.342;2023-07-29T07:19:58;3.73;;;1.50;;
17987;SDS011;9119;50.932;5.342;2023-07-29T07:22:24;6.10;;;2.33;;
17987;SDS011;9119;50.932;5.342;2023-07-29T07:24:49;5.47;;;1.63;;
17987;SDS011;9119;50.932;5.342;2023-07-29T07:27:15;4.87;;;1.33;;
17987;SDS011;9119;50.932;5.342;2023-07-29T07:29:41;3.50;;;1.70;;
17987;SDS011;9119;50.932;5.342;2023-07-29T07:32:06;3.83;;;1.20;;
17987;SDS011;9119;50.932;5.342;2023-07-29T07:34:32;3.33;;;1.30;;
17987;SDS011;9119;50.932;5.342;2023-07-29T07:36:59;5.83;;;1.87;;
17987;SDS011;9119;50.932;5.342;2023-07-29T07:39:25;5.60;;;1.70;;
17987;SDS011;9119;50.932;5.342;2023-07-29T07:41:51;5.43;;;1.53;;
17987;SDS011;9119;50.932;5.342;2023-07-29T07:44:18;11.50;;;1.80;;
17987;SDS011;9119;50.932;5.342;2023-07-29T07:46:44;4.17;;;1.40;;
17987;SDS011;9119;50.932;5.342;2023-07-29T07:49:10;4.83;;;2.03;;
17987;SDS011;9119;50.932;5.342;2023-07-29T07:51:37;7.77;;;1.80;;
17987;SDS011;9119;50.932;5.342;2023-07-29T07:54:03;6.30;;;1.47;;
17987;SDS011;9119;50.932;5.342;2023-07-29T07:56:29;2.37;;;1.40;;
17987;SDS011;9119;50.932;5.342;2023-07-29T07:58:55;3.53;;;1.43;;
17987;SDS011;9119;50.932;5.342;2023-07-29T08:01:21;4.73;;;1.60;;
17987;SDS011;9119;50.932;5.342;2023-07-29T08:03:46;4.17;;;1.60;;
17987;SDS011;9119;50.932;5.342;2023-07-29T08:06:12;5.27;;;1.40;;
17987;SDS011;9119;50.932;5.342;2023-07-29T08:08:37;2.07;;;1.33;;
17987;SDS011;9119;50.932;5.342;2023-07-29T08:11:03;2.80;;;1.30;;
17987;SDS011;9119;50.932;5.342;2023-07-29T08:13:29;5.20;;;1.60;;
17987;SDS011;9119;50.932;5.342;2023-07-29T08:15:55;2.13;;;1.33;;
17987;SDS011;9119;50.932;5.342;2023-07-29T08:18:20;4.30;;;1.40;;
17987;SDS011;9119;50.932;5.342;2023-07-29T08:20:56;3.57;;;1.50;;
17987;SDS011;9119;50.932;5.342;2023-07-29T08:23:26;4.77;;;1.70;;
17987;SDS011;9119;50.932;5.342;2023-07-29T08:25:55;2.40;;;1.50;;
17987;SDS011;9119;50.932;5.342;2023-07-29T08:28:26;5.90;;;1.70;;
17987;SDS011;9119;50.932;5.342;2023-07-29T08:30:56;6.40;;;1.37;;
17987;SDS011;9119;50.932;5.342;2023-07-29T08:33:22;5.17;;;1.40;;
17987;SDS011;9119;50.932;5.342;2023-07-29T08:35:48;6.73;;;1.90;;
17987;SDS011;9119;50.932;5.342;2023-07-29T08:38:13;3.73;;;1.50;;
17987;SDS011;9119;50.932;5.342;2023-07-29T08:40:45;4.03;;;1.70;;
17987;SDS011;9119;50.932;5.342;2023-07-29T08:43:29;2.47;;;1.50;;
17987;SDS011;9119;50.932;5.342;2023-07-29T08:45:57;7.33;;;1.53;;
17987;SDS011;9119;50.932;5.342;2023-07-29T08:48:32;2.70;;;1.50;;
17987;SDS011;9119;50.932;5.342;2023-07-29T08:51:02;2.03;;;1.30;;
17987;SDS011;9119;50.932;5.342;2023-07-29T08:53:30;5.53;;;1.73;;
17987;SDS011;9119;50.932;5.342;2023-07-29T08:55:56;2.73;;;1.47;;
17987;SDS011;9119;50.932;5.342;2023-07-29T08:58:23;2.90;;;1.27;;
17987;SDS011;9119;50.932;5.342;2023-07-29T09:00:49;5.57;;;1.50;;
17987;SDS011;9119;50.932;5.342;2023-07-29T09:03:15;2.70;;;1.30;;
17987;SDS011;9119;50.932;5.342;2023-07-29T09:05:41;4.80;;;1.43;;
17987;SDS011;9119;50.932;5.342;2023-07-29T09:08:07;5.17;;;1.80;;
17987;SDS011;9119;50.932;5.342;2023-07-29T09:10:36;4.90;;;1.77;;
17987;SDS011;9119;50.932;5.342;2023-07-29T09:13:02;10.73;;;1.50;;
17987;SDS011;9119;50.932;5.342;2023-07-29T09:15:32;3.20;;;1.57;;
17987;SDS011;9119;50.932;5.342;2023-07-29T09:17:59;7.13;;;1.20;;
17987;SDS011;9119;50.932;5.342;2023-07-29T09:20:39;3.67;;;1.20;;
17987;SDS011;9119;50.932;5.342;2023-07-29T09:23:07;6.87;;;1.50;;
17987;SDS011;9119;50.932;5.342;2023-07-29T09:25:35;2.63;;;1.40;;
17987;SDS011;9119;50.932;5.342;2023-07-29T09:28:02;3.53;;;1.10;;
17987;SDS011;9119;50.932;5.342;2023-07-29T09:30:45;1.87;;;1.50;;
17987;SDS011;9119;50.932;5.342;2023-07-29T09:33:12;3.43;;;1.37;;
17987;SDS011;9119;50.932;5.342;2023-07-29T09:35:38;3.60;;;1.83;;
17987;SDS011;9119;50.932;5.342;2023-07-29T09:38:04;1.80;;;1.50;;
17987;SDS011;9119;50.932;5.342;2023-07-29T09:40:34;6.97;;;1.63;;
17987;SDS011;9119;50.932;5.342;2023-07-29T09:43:04;4.17;;;1.30;;
17987;SDS011;9119;50.932;5.342;2023-07-29T09:45:32;3.93;;;1.53;;
17987;SDS011;9119;50.932;5.342;2023-07-29T09:47:59;3.67;;;1.50;;
17987;SDS011;9119;50.932;5.342;2023-07-29T09:50:25;4.77;;;1.80;;
17987;SDS011;9119;50.932;5.342;2023-07-29T09:52:52;5.10;;;1.50;;
17987;SDS011;9119;50.932;5.342;2023-07-29T09:55:19;1.43;;;1.20;;
17987;SDS011;9119;50.932;5.342;2023-07-29T09:57:48;2.83;;;1.33;;
17987;SDS011;9119;50.932;5.342;2023-07-29T10:00:19;2.13;;;1.50;;
17987;SDS011;9119;50.932;5.342;2023-07-29T10:02:44;1.50;;;1.07;;
17987;SDS011;9119;50.932;5.342;2023-07-29T10:05:11;2.40;;;1.10;;
17987;SDS011;9119;50.932;5.342;2023-07-29T10:07:37;5.23;;;1.10;;
17987;SDS011;9119;50.932;5.342;2023-07-29T10:10:04;2.80;;;1.63;;
17987;SDS011;9119;50.932;5.342;2023-07-29T10:12:31;3.10;;;1.10;;
17987;SDS011;9119;50.932;5.342;2023-07-29T10:14:59;2.77;;;1.30;;
17987;SDS011;9119;50.932;5.342;2023-07-29T10:17:26;3.13;;;1.20;;
17987;SDS011;9119;50.932;5.342;2023-07-29T10:19:52;2.23;;;1.20;;
17987;SDS011;9119;50.932;5.342;2023-07-29T10:22:21;3.03;;;1.40;;
17987;SDS011;9119;50.932;5.342;2023-07-29T10:24:49;1.43;;;1.20;;
17987;SDS011;9119;50.932;5.342;2023-07-29T10:27:19;4.07;;;1.80;;
17987;SDS011;9119;50.932;5.342;2023-07-29T10:29:46;3.03;;;1.37;;
17987;SDS011;9119;50.932;5.342;2023-07-29T10:32:12;2.23;;;1.43;;
17987;SDS011;9119;50.932;5.342;2023-07-29T10:34:38;1.70;;;1.40;;
17987;SDS011;9119;50.932;5.342;2023-07-29T10:37:05;3.83;;;1.47;;
17987;SDS011;9119;50.932;5.342;2023-07-29T10:39:38;3.30;;;1.40;;
17987;SDS011;9119;50.932;5.342;2023-07-29T10:42:05;4.60;;;1.50;;
17987;SDS011;9119;50.932;5.342;2023-07-29T10:47:13;3.27;;;1.63;;
17987;SDS011;9119;50.932;5.342;2023-07-29T10:49:44;1.70;;;1.23;;
17987;SDS011;9119;50.932;5.342;2023-07-29T10:52:14;3.03;;;1.37;;
17987;SDS011;9119;50.932;5.342;2023-07-29T10:54:42;3.50;;;1.50;;
17987;SDS011;9119;50.932;5.342;2023-07-29T10:57:12;2.87;;;1.60;;
17987;SDS011;9119;50.932;5.342;2023-07-29T10:59:40;1.97;;;1.40;;
17987;SDS011;9119;50.932;5.342;2023-07-29T11:02:12;2.50;;;1.40;;
17987;SDS011;9119;50.932;5.342;2023-07-29T11:04:46;2.83;;;1.30;;
17987;SDS011;9119;50.932;5.342;2023-07-29T11:15:06;3.00;;;1.60;;
17987;SDS011;9119;50.932;5.342;2023-07-29T11:17:41;3.83;;;1.70;;
17987;SDS011;9119;50.932;5.342;2023-07-29T11:20:10;3.90;;;1.63;;
17987;SDS011;9119;50.932;5.342;2023-07-29T11:22:37;4.20;;;1.47;;
17987;SDS011;9119;50.932;5.342;2023-07-29T11:25:03;3.33;;;1.70;;
17987;SDS011;9119;50.932;5.342;2023-07-29T11:27:30;4.40;;;1.70;;
17987;SDS011;9119;50.932;5.342;2023-07-29T11:29:56;3.73;;;1.90;;
17987;SDS011;9119;50.932;5.342;2023-07-29T11:32:23;5.13;;;2.33;;
17987;SDS011;9119;50.932;5.342;2023-07-29T11:34:50;5.00;;;2.03;;
17987;SDS011;9119;50.932;5.342;2023-07-29T11:37:16;3.93;;;2.20;;
17987;SDS011;9119;50.932;5.342;2023-07-29T11:39:42;4.90;;;2.03;;
17987;SDS011;9119;50.932;5.342;2023-07-29T11:42:12;3.17;;;2.10;;
17987;SDS011;9119;50.932;5.342;2023-07-29T11:44:39;6.80;;;3.10;;
17987;SDS011;9119;50.932;5.342;2023-07-29T11:47:08;7.13;;;3.03;;
17987;SDS011;9119;50.932;5.342;2023-07-29T11:49:35;4.37;;;2.50;;
17987;SDS011;9119;50.932;5.342;2023-07-29T11:52:05;6.77;;;2.60;;
17987;SDS011;9119;50.932;5.342;2023-07-29T11:54:35;6.30;;;2.50;;
17987;SDS011;9119;50.932;5.342;2023-07-29T11:57:03;5.77;;;2.60;;
17987;SDS011;9119;50.932;5.342;2023-07-29T11:59:31;5.93;;;3.80;;
17987;SDS011;9119;50.932;5.342;2023-07-29T12:01:58;4.17;;;2.60;;
17987;SDS011;9119;50.932;5.342;2023-07-29T12:04:25;4.27;;;2.53;;
17987;SDS011;9119;50.932;5.342;2023-07-29T12:06:51;4.73;;;2.90;;
17987;SDS011;9119;50.932;5.342;2023-07-29T12:09:17;5.03;;;3.17;;
17987;SDS011;9119;50.932;5.342;2023-07-29T12:11:44;6.57;;;2.80;;
17987;SDS011;9119;50.932;5.342;2023-07-29T12:14:09;6.23;;;2.87;;
17987;SDS011;9119;50.932;5.342;2023-07-29T12:16:42;5.93;;;2.93;;
17987;SDS011;9119;50.932;5.342;2023-07-29T12:19:08;4.00;;;2.90;;
17987;SDS011;9119;50.932;5.342;2023-07-29T12:21:38;4.13;;;2.90;;
17987;SDS011;9119;50.932;5.342;2023-07-29T12:24:05;5.03;;;3.00;;
17987;SDS011;9119;50.932;5.342;2023-07-29T12:26:31;5.00;;;3.10;;
17987;SDS011;9119;50.932;5.342;2023-07-29T12:28:56;5.73;;;3.10;;
17987;SDS011;9119;50.932;5.342;2023-07-29T12:31:28;6.57;;;2.83;;
17987;SDS011;9119;50.932;5.342;2023-07-29T12:33:57;5.53;;;3.00;;
17987;SDS011;9119;50.932;5.342;2023-07-29T12:36:26;6.73;;;3.07;;
17987;SDS011;9119;50.932;5.342;2023-07-29T12:39:05;8.27;;;3.30;;
17987;SDS011;9119;50.932;5.342;2023-07-29T12:41:31;5.60;;;2.70;;
17987;SDS011;9119;50.932;5.342;2023-07-29T12:43:56;5.37;;;2.00;;
17987;SDS011;9119;50.932;5.342;2023-07-29T12:46:22;7.93;;;2.10;;
17987;SDS011;9119;50.932;5.342;2023-07-29T12:48:53;3.73;;;2.10;;
17987;SDS011;9119;50.932;5.342;2023-07-29T12:51:19;5.83;;;2.13;;
17987;SDS011;9119;50.932;5.342;2023-07-29T12:53:45;4.63;;;1.90;;
17987;SDS011;9119;50.932;5.342;2023-07-29T12:56:10;4.33;;;1.90;;
17987;SDS011;9119;50.932;5.342;2023-07-29T12:58:36;3.37;;;1.90;;
17987;SDS011;9119;50.932;5.342;2023-07-29T13:01:02;3.07;;;1.77;;
17987;SDS011;9119;50.932;5.342;2023-07-29T13:03:27;2.07;;;1.50;;
17987;SDS011;9119;50.932;5.342;2023-07-29T13:05:53;2.37;;;1.67;;
17987;SDS011;9119;50.932;5.342;2023-07-29T13:08:19;3.03;;;1.60;;
17987;SDS011;9119;50.932;5.342;2023-07-29T13:10:45;5.03;;;2.30;;
17987;SDS011;9119;50.932;5.342;2023-07-29T13:13:11;4.40;;;2.40;;
17987;SDS011;9119;50.932;5.342;2023-07-29T13:15:36;3.60;;;2.03;;
17987;SDS011;9119;50.932;5.342;2023-07-29T13:18:02;3.77;;;2.20;;
17987;SDS011;9119;50.932;5.342;2023-07-29T13:20:29;2.10;;;1.80;;
17987;SDS011;9119;50.932;5.342;2023-07-29T13:22:55;3.57;;;2.00;;
17987;SDS011;9119;50.932;5.342;2023-07-29T13:25:20;5.00;;;3.03;;
17987;SDS011;9119;50.932;5.342;2023-07-29T13:27:46;6.87;;;3.20;;
17987;SDS011;9119;50.932;5.342;2023-07-29T13:30:11;6.43;;;3.00;;
17987;SDS011;9119;50.932;5.342;2023-07-29T13:32:37;6.80;;;3.33;;
17987;SDS011;9119;50.932;5.342;2023-07-29T13:35:03;4.40;;;3.23;;
17987;SDS011;9119;50.932;5.342;2023-07-29T13:37:29;6.80;;;4.53;;
17987;SDS011;9119;50.932;5.342;2023-07-29T13:39:54;4.83;;;2.73;;
17987;SDS011;9119;50.932;5.342;2023-07-29T13:42:20;5.40;;;3.33;;
17987;SDS011;9119;50.932;5.342;2023-07-29T13:44:45;5.43;;;3.60;;
17987;SDS011;9119;50.932;5.342;2023-07-29T13:47:11;5.80;;;3.33;;
17987;SDS011;9119;50.932;5.342;2023-07-29T13:49:37;7.67;;;3.57;;
17987;SDS011;9119;50.932;5.342;2023-07-29T13:52:02;6.93;;;4.30;;
17987;SDS011;9119;50.932;5.342;2023-07-29T13:54:28;28.97;;;20.13;;
17987;SDS011;9119;50.932;5.342;2023-07-29T13:56:54;6.83;;;3.30;;
17987;SDS011;9119;50.932;5.342;2023-07-29T13:59:19;5.60;;;2.87;;
17987;SDS011;9119;50.932;5.342;2023-07-29T14:01:45;5.33;;;2.37;;
17987;SDS011;9119;50.932;5.342;2023-07-29T14:04:10;3.53;;;2.57;;
17987;SDS011;9119;50.932;5.342;2023-07-29T14:06:36;4.20;;;2.30;;
17987;SDS011;9119;50.932;5.342;2023-07-29T14:09:02;3.37;;;2.20;;
17987;SDS011;9119;50.932;5.342;2023-07-29T14:11:27;7.70;;;2.00;;
17987;SDS011;9119;50.932;5.342;2023-07-29T14:13:53;7.40;;;2.40;;
17987;SDS011;9119;50.932;5.342;2023-07-29T14:16:18;4.27;;;1.90;;
17987;SDS011;9119;50.932;5.342;2023-07-29T14:18:44;2.63;;;1.50;;
17987;SDS011;9119;50.932;5.342;2023-07-29T14:21:10;2.53;;;1.60;;
17987;SDS011;9119;50.932;5.342;2023-07-29T14:23:35;6.47;;;2.37;;
17987;SDS011;9119;50.932;5.342;2023-07-29T14:26:01;5.40;;;2.00;;
17987;SDS011;9119;50.932;5.342;2023-07-29T14:28:27;3.37;;;1.50;;
17987;SDS011;9119;50.932;5.342;2023-07-29T14:30:52;3.00;;;1.53;;
17987;SDS011;9119;50.932;5.342;2023-07-29T14:33:18;2.20;;;1.90;;
17987;SDS011;9119;50.932;5.342;2023-07-29T14:35:44;2.13;;;1.50;;
17987;SDS011;9119;50.932;5.342;2023-07-29T14:38:09;4.03;;;1.53;;
17987;SDS011;9119;50.932;5.342;2023-07-29T14:40:35;3.40;;;1.90;;
17987;SDS011;9119;50.932;5.342;2023-07-29T14:43:00;2.47;;;1.40;;
17987;SDS011;9119;50.932;5.342;2023-07-29T14:45:26;1.77;;;1.33;;
17987;SDS011;9119;50.932;5.342;2023-07-29T14:47:52;3.77;;;1.97;;
17987;SDS011;9119;50.932;5.342;2023-07-29T14:50:17;4.30;;;1.60;;
17987;SDS011;9119;50.932;5.342;2023-07-29T14:52:43;4.60;;;1.47;;
17987;SDS011;9119;50.932;5.342;2023-07-29T14:55:09;1.90;;;1.50;;
17987;SDS011;9119;50.932;5.342;2023-07-29T14:57:34;1.30;;;1.20;;
17987;SDS011;9119;50.932;5.342;2023-07-29T15:00:00;1.67;;;1.40;;
17987;SDS011;9119;50.932;5.342;2023-07-29T15:02:26;3.30;;;1.40;;